• Join FlightAware (Why Join?)
  • Login
  • US Flag 
06:30AM EDT


 

Airport Tracker/Info


-or-


 

Live Flight TrackerFlight Track Log ✈ AWE2010 ✈ 10-Jan-2014 ✈ KBTV - KPHL

Flight Track Log - Related Links

Times and Time Zones

All times are in EST time to prevent confusion due to time zone crossing. See the AWE2010 flight status page for this flight to view local times or setup timezone preferences in your user account.

Time Position Orientation Groundspeed Altitude Reporting Facility
EST Latitude Longitude Course Direction KTS MPH feet Rate Location/Type
07:07AM 44.1984 -73.2868 194° South  Level Estimated
07:07AM 44.3597 -73.1536 192° South 205 236 5,800  Level Boston Center
07:08AM 44.1031 -73.3082 189° South  Level FlightAware Approximate
07:08AM 44.2897 -73.1850 198° South 246 283 8,600  Level Boston Center
07:09AM 44.0121 -73.3528 196° South  Level Estimated
07:09AM 44.2175 -73.2147 196° South 270 311 10,900  Level Boston Center
07:10AM 43.9178 -73.3817 192° South  Level FlightAware Approximate
07:10AM 44.1331 -73.2528 198° South 318 366 13,300  Level Boston Center
07:11AM 43.8269 -73.4094 192° South  Level FlightAware Approximate
07:11AM 44.0583 -73.3197 213° Southwest 323 372 16,000  Level Boston Center
07:12AM 43.7360 -73.4371 192° South  Level FlightAware Approximate
07:12AM 43.9742 -73.3961 213° Southwest 334 384 18,200  Level Boston Center
07:13AM 43.8994 -73.4606 212° Southwest 343 395 20,300 2,040 Climbing Boston Center
07:14AM 43.8178 -73.5342 213° Southwest 348 400 22,400 1,980 Climbing Boston Center
07:15AM 43.7353 -73.6078 213° Southwest 353 406 24,400 1,680 Climbing Boston Center
07:16AM 43.6500 -73.6839 213° Southwest 362 417 25,900 780 Climbing Boston Center
07:17AM 43.5625 -73.7619 213° Southwest 372 428 26,000  Climbing Boston Center
07:18AM 43.4731 -73.8414 213° Southwest 381 438 26,000 240 Level Boston Center
07:19AM 43.3747 -73.9283 213° Southwest 383 441 26,600 960 Climbing Boston Center
07:20AM 43.2808 -74.0100 212° Southwest 396 456 28,000 660 Climbing Boston Center
07:21AM 43.1864 -74.0942 213° Southwest 402 463 28,000  Level Boston Center
07:22AM 43.0928 -74.1747 212° Southwest 398 458 28,000  Level Boston Center
07:23AM 43.0003 -74.2561 213° Southwest 394 453 28,000 -300 Level Boston Center
07:24AM 42.9081 -74.3369 213° Southwest 393 452 27,500 -1,020 Descending Boston Center
07:25AM 42.8158 -74.4156 212° Southwest 391 450 26,000 -780 Descending Boston Center
07:26AM 42.7258 -74.4925 212° Southwest 385 443 26,000  Level Boston Center
07:27AM 42.6333 -74.5733 213° Southwest 391 450 26,000  Level Boston Center
07:28AM 42.5231 -74.6683 212° Southwest 390 449 26,000  Level Boston Center
07:29AM 42.4325 -74.7458 212° Southwest 385 443 26,000  Level Boston Center
07:30AM 42.3414 -74.8217 212° Southwest 385 443 26,000 -840 Level Boston Center
07:31AM 42.2525 -74.8981 212° Southwest 380 437 24,400 -1,620 Descending Boston Center
07:32AM 42.1647 -74.9711 212° Southwest 373 429 22,800 -1,620 Descending Boston Center
07:33AM 42.0786 -75.0414 211° Southwest 365 420 21,100 -1,560 Descending Boston Center
07:34AM 41.9997 -75.1061 211° Southwest 357 411 19,600 -1,080 Descending Boston Center
07:35AM 41.9178 -75.1728 211° Southwest 346 398 19,000 -420 Descending Boston Center
07:36AM 41.8353 -75.2397 211° Southwest 346 398 18,800 -900 Descending Boston Center
07:37AM 41.7469 -75.3136 212° Southwest 350 403 17,200 -1,620 Descending New York Center
07:38AM 41.6589 -75.3853 211° Southwest 350 403 15,600 -1,500 Descending New York Center
07:39AM 41.5772 -75.4492 210° Southwest 350 403 14,200 -1,380 Descending New York Center
07:40AM 41.5083 -75.5053 211° Southwest 345 397 12,900 -1,200 Descending New York Center
07:41AM 41.4308 -75.5661 210° Southwest 340 391 11,900 -540 Descending New York Center
07:42AM 41.3469 -75.6347 212° Southwest 335 386 11,900  Level New York Center
07:43AM 41.2675 -75.6869 206° Southwest 329 379 11,900  Level New York Center
07:44AM 41.1717 -75.6883 181° South 329 379 11,900  Level New York Center
07:45AM 41.0739 -75.6894 180° South 346 398 11,900  Level New York Center
07:46AM 40.9781 -75.6881 179° South 346 398 12,000  Climbing New York Center
07:47AM 40.8833 -75.6619 168° South 346 398 12,000  Level New York Center
07:48AM 40.7917 -75.6117 157° South 351 404 12,000  Level New York Center
07:49AM 40.6978 -75.5611 158° South 364 419 12,000  Level New York Center
07:50AM 40.6019 -75.5106 158° South 364 419 12,000 -600 Level New York Center
07:51AM 40.5181 -75.4694 160° South 364 419 10,900 -1,140 Descending New York Center
07:52AM 40.4283 -75.4197 157° South 346 398 9,800 -1,080 Descending New York Center
07:53AM 40.3631 -75.3825 157° South 310 357 8,800 -1,200 Descending New York Center
07:54AM 40.2828 -75.3581 167° South 273 314 7,500 -1,140 Descending New York Center
07:55AM 40.2172 -75.3836 197° South 252 290 6,600 -780 Descending New York Center
07:56AM 40.1494 -75.4117 198° South 264 304 6,000 -300 Descending New York Center
07:57AM 40.0858 -75.4375 197° South 251 289 6,000  Level New York Center
07:58AM 40.0244 -75.4631 198° South 237 273 6,000 -180 Level New York Center
07:59AM 39.9775 -75.4897 204° Southwest 211 243 5,700 -660 Descending New York Center
08:00AM 39.9431 -75.5144 209° Southwest 177 204 4,700 -1,140 Descending New York Center
08:01AM 39.8928 -75.5219 187° South 172 198 3,500 -1,140 Descending New York Center
08:02AM 39.8475 -75.5081 167° South 164 189 2,500 -780 Descending New York Center
08:03AM 39.8292 -75.4447 111° Southeast 155 178 2,000 -360 Descending New York Center
08:04AM 39.8400 -75.3806 78° East 155 178 1,800 -660 Descending New York Center
08:05AM 39.8500 -75.3167 78° East 136 157 600 -960 Descending Philadelphia TRACON
08:07AM 39.8667 -75.2333 81° East  Level FlightAware Approximate
08:14AM 39.8722 -75.2409 81° East  Level Estimated